createdAt,value
2018-11-25T00:01:17.381Z,29.63
2018-11-25T00:03:44.548Z,26.53
2018-11-25T00:06:11.747Z,26.23
2018-11-25T00:08:38.909Z,30.60
2018-11-25T00:11:06.138Z,27.20
2018-11-25T00:13:33.301Z,27.50
2018-11-25T00:16:00.486Z,28.07
2018-11-25T00:18:27.675Z,26.33
2018-11-25T00:20:54.904Z,27.03
2018-11-25T00:23:22.073Z,25.80
2018-11-25T00:25:49.239Z,26.10
2018-11-25T00:28:16.426Z,25.33
2018-11-25T00:30:43.666Z,25.13
2018-11-25T00:33:10.796Z,26.40
2018-11-25T00:35:37.977Z,27.13
2018-11-25T00:38:05.163Z,24.67
2018-11-25T00:40:32.418Z,27.33
2018-11-25T00:42:59.602Z,25.27
2018-11-25T00:45:26.772Z,25.33
2018-11-25T00:47:53.947Z,26.73
2018-11-25T00:50:21.125Z,27.00
2018-11-25T00:52:48.322Z,25.37
2018-11-25T00:55:16.288Z,29.43
2018-11-25T00:57:43.493Z,29.60
2018-11-25T01:00:15.569Z,27.30
2018-11-25T01:02:42.804Z,27.23
2018-11-25T01:05:10.298Z,28.47
2018-11-25T01:07:37.663Z,29.10
2018-11-25T01:10:06.785Z,27.00
2018-11-25T01:12:33.969Z,26.03
2018-11-25T01:15:01.235Z,23.27
2018-11-25T01:17:28.411Z,24.33
2018-11-25T01:19:55.577Z,24.17
2018-11-25T01:22:22.801Z,24.40
2018-11-25T01:24:50.023Z,25.53
2018-11-25T01:27:17.209Z,23.63
2018-11-25T01:29:44.372Z,25.50
2018-11-25T01:32:11.591Z,25.60
2018-11-25T01:34:38.769Z,30.87
2018-11-25T01:37:06.037Z,28.03
2018-11-25T01:39:33.368Z,27.87
2018-11-25T01:42:00.532Z,30.37
2018-11-25T01:44:27.712Z,32.73
2018-11-25T01:46:54.890Z,28.40
2018-11-25T01:49:22.628Z,31.10
2018-11-25T01:51:49.284Z,32.87
2018-11-25T01:54:16.502Z,44.20
2018-11-25T01:56:43.713Z,37.93
2018-11-25T01:59:10.898Z,35.73
2018-11-25T02:01:38.073Z,32.17
2018-11-25T02:04:05.273Z,37.90
2018-11-25T02:06:32.453Z,37.60
2018-11-25T02:08:59.643Z,34.60
2018-11-25T02:11:26.833Z,35.03
2018-11-25T02:13:54.041Z,33.63
2018-11-25T02:16:21.213Z,34.43
2018-11-25T02:18:48.401Z,32.20
2018-11-25T02:21:15.600Z,33.13
2018-11-25T02:23:42.801Z,34.37
2018-11-25T02:26:09.980Z,34.90
2018-11-25T02:28:37.170Z,33.27
2018-11-25T02:31:04.399Z,37.33
2018-11-25T02:33:31.581Z,31.50
2018-11-25T02:35:58.752Z,32.77
2018-11-25T02:38:25.943Z,30.87
2018-11-25T02:40:53.108Z,31.97
2018-11-25T02:43:20.294Z,30.73
2018-11-25T02:45:47.526Z,28.60
2018-11-25T02:48:14.714Z,30.73
2018-11-25T02:50:41.899Z,31.57
2018-11-25T02:53:09.084Z,32.07
2018-11-25T02:55:36.293Z,32.00
2018-11-25T02:58:03.733Z,32.00
2018-11-25T03:00:30.928Z,31.40
2018-11-25T03:02:58.122Z,36.30
2018-11-25T03:05:25.328Z,32.43
2018-11-25T03:07:52.509Z,32.83
2018-11-25T03:10:19.717Z,33.43
2018-11-25T03:12:46.912Z,32.67
2018-11-25T03:15:14.944Z,33.73
2018-11-25T03:17:42.112Z,31.43
2018-11-25T03:20:12.424Z,29.90
2018-11-25T03:22:39.633Z,31.80
2018-11-25T03:25:14.995Z,31.33
2018-11-25T03:27:42.181Z,30.73
2018-11-25T03:30:14.531Z,26.07
2018-11-25T03:32:42.064Z,25.13
2018-11-25T03:35:10.364Z,32.30
2018-11-25T03:37:37.525Z,30.13
2018-11-25T03:40:07.640Z,27.80
2018-11-25T03:42:34.811Z,28.60
2018-11-25T03:45:02.016Z,27.87
2018-11-25T03:47:29.180Z,25.63
2018-11-25T03:49:56.369Z,26.77
2018-11-25T03:52:23.558Z,26.57
2018-11-25T03:54:50.746Z,26.43
2018-11-25T03:57:17.912Z,24.83
2018-11-25T03:59:45.100Z,21.77
2018-11-25T04:02:12.257Z,26.10
2018-11-25T04:04:39.467Z,24.37
2018-11-25T04:07:06.633Z,25.80
2018-11-25T04:09:33.817Z,25.53
2018-11-25T04:12:00.983Z,26.40
2018-11-25T04:14:28.291Z,24.33
2018-11-25T04:16:55.488Z,21.03
2018-11-25T04:19:22.689Z,23.07
2018-11-25T04:21:49.866Z,22.10
2018-11-25T04:24:17.053Z,24.37
2018-11-25T04:26:44.241Z,23.53
2018-11-25T04:29:11.426Z,22.57
2018-11-25T04:31:38.669Z,23.03
2018-11-25T04:34:05.844Z,23.83
2018-11-25T04:36:33.055Z,23.83
2018-11-25T04:39:00.224Z,24.50
2018-11-25T04:41:27.404Z,23.67
2018-11-25T04:43:54.577Z,23.43
2018-11-25T04:46:21.749Z,22.83
2018-11-25T04:48:48.943Z,20.97
2018-11-25T04:51:16.115Z,22.33
2018-11-25T04:53:43.287Z,24.20
2018-11-25T04:56:10.481Z,22.50
2018-11-25T04:58:37.636Z,23.30
2018-11-25T05:01:04.834Z,24.60
2018-11-25T05:03:32.007Z,21.70
2018-11-25T05:05:59.180Z,21.43
2018-11-25T05:08:26.360Z,23.40
2018-11-25T05:10:53.564Z,24.17
2018-11-25T05:13:20.775Z,23.37
2018-11-25T05:15:47.962Z,22.40
2018-11-25T05:18:15.129Z,22.07
2018-11-25T05:20:42.316Z,22.93
2018-11-25T05:23:09.489Z,24.80
2018-11-25T05:25:36.667Z,21.37
2018-11-25T05:28:04.177Z,22.43
2018-11-25T05:30:31.370Z,22.73
2018-11-25T05:32:58.545Z,25.20
2018-11-25T05:35:25.725Z,22.47
2018-11-25T05:37:52.904Z,26.00
2018-11-25T05:40:20.099Z,23.70
2018-11-25T05:42:47.291Z,25.67
2018-11-25T05:45:15.624Z,26.93
2018-11-25T05:47:42.769Z,26.57
2018-11-25T05:50:11.299Z,27.17
2018-11-25T05:52:38.628Z,27.73
2018-11-25T05:55:06.941Z,26.83
2018-11-25T05:57:34.377Z,27.77
2018-11-25T06:00:01.595Z,29.07
2018-11-25T06:02:28.777Z,25.83
2018-11-25T06:04:55.959Z,23.67
2018-11-25T06:07:23.133Z,25.90
2018-11-25T06:09:50.317Z,24.27
2018-11-25T06:12:17.483Z,24.77
2018-11-25T06:14:44.672Z,24.07
2018-11-25T06:17:11.853Z,24.87
2018-11-25T06:19:39.027Z,25.30
2018-11-25T06:22:06.208Z,28.67
2018-11-25T06:24:33.393Z,27.40
2018-11-25T06:27:00.572Z,24.27
2018-11-25T06:29:27.743Z,27.03
2018-11-25T06:31:54.919Z,26.00
2018-11-25T06:34:22.113Z,32.97
2018-11-25T06:36:49.327Z,53.53
2018-11-25T06:39:16.456Z,87.07
2018-11-25T06:41:43.637Z,103.73
2018-11-25T06:44:10.791Z,61.33
2018-11-25T06:46:37.968Z,53.83
2018-11-25T06:49:05.337Z,141.30
2018-11-25T06:51:32.512Z,116.10
2018-11-25T06:53:59.679Z,77.20
2018-11-25T06:56:27.479Z,57.30
2018-11-25T06:58:54.049Z,47.00
2018-11-25T07:01:21.237Z,38.17
2018-11-25T07:03:48.460Z,34.77
2018-11-25T07:06:15.656Z,29.47
2018-11-25T07:08:42.820Z,27.30
2018-11-25T07:11:10.017Z,25.90
2018-11-25T07:13:37.369Z,25.30
2018-11-25T07:16:06.502Z,26.83
2018-11-25T07:18:32.577Z,30.17
2018-11-25T07:20:59.782Z,32.83
2018-11-25T07:23:27.061Z,34.40
2018-11-25T07:25:54.488Z,36.90
2018-11-25T07:28:21.665Z,32.07
2018-11-25T07:30:48.848Z,32.20
2018-11-25T07:33:16.012Z,31.53
2018-11-25T07:35:43.233Z,26.10
2018-11-25T07:38:10.393Z,27.47
2018-11-25T07:40:37.582Z,28.27
2018-11-25T07:43:04.893Z,28.37
2018-11-25T07:45:32.205Z,28.10
2018-11-25T07:47:59.481Z,29.07
2018-11-25T07:50:26.660Z,26.70
2018-11-25T07:52:53.901Z,24.13
2018-11-25T07:55:23.191Z,22.57
2018-11-25T07:57:51.300Z,24.83
2018-11-25T08:00:19.516Z,22.77
2018-11-25T08:02:46.792Z,29.70
2018-11-25T08:05:15.342Z,37.60
2018-11-25T08:07:42.521Z,39.77
2018-11-25T08:10:12.612Z,35.77
2018-11-25T08:12:39.864Z,66.87
2018-11-25T08:15:11.928Z,45.40
2018-11-25T08:17:39.305Z,44.03
2018-11-25T08:20:08.847Z,56.33
2018-11-25T08:22:36.054Z,52.17
2018-11-25T08:25:03.727Z,63.13
2018-11-25T08:27:30.973Z,67.73
2018-11-25T08:29:58.347Z,70.87
2018-11-25T08:32:25.525Z,72.27
2018-11-25T08:34:52.692Z,74.47
2018-11-25T08:37:19.896Z,55.40
2018-11-25T08:39:47.112Z,56.83
2018-11-25T08:42:14.336Z,56.87
2018-11-25T08:44:41.519Z,40.87
2018-11-25T08:48:33.386Z,63.70
2018-11-25T08:51:00.570Z,55.93
2018-11-25T08:53:27.774Z,39.63
2018-11-25T08:55:55.043Z,35.43
2018-11-25T08:58:22.213Z,34.67
2018-11-25T09:00:49.440Z,40.97
2018-11-25T09:03:16.703Z,41.47
2018-11-25T09:05:43.956Z,46.67
2018-11-25T09:08:11.140Z,40.53
2018-11-25T09:10:38.321Z,38.73
2018-11-25T09:13:05.830Z,41.70
2018-11-25T09:15:33.007Z,41.80
2018-11-25T09:18:00.221Z,50.90
2018-11-25T09:20:27.474Z,43.40
2018-11-25T09:22:54.660Z,50.67
2018-11-25T09:25:24.094Z,43.83
2018-11-25T09:27:51.513Z,42.43
2018-11-25T09:30:21.781Z,51.97
2018-11-25T09:32:48.988Z,41.13
2018-11-25T09:35:16.666Z,42.30
2018-11-25T09:37:43.869Z,47.70
2018-11-25T09:40:14.127Z,43.60
2018-11-25T09:42:41.535Z,40.80
2018-11-25T09:45:12.732Z,40.27
2018-11-25T09:50:03.379Z,40.93
2018-11-25T09:52:30.661Z,41.90
2018-11-25T09:54:57.901Z,37.73
2018-11-25T09:57:25.082Z,35.97
2018-11-25T09:59:52.303Z,34.13
2018-11-25T10:02:19.509Z,34.03
2018-11-25T10:04:46.679Z,35.93
2018-11-25T10:07:14.021Z,35.67
2018-11-25T10:09:41.484Z,35.40
2018-11-25T10:12:08.677Z,34.33
2018-11-25T10:14:35.908Z,35.33
2018-11-25T10:17:03.142Z,33.37
2018-11-25T10:19:30.308Z,30.80
2018-11-25T10:21:57.501Z,34.27
2018-11-25T10:24:24.729Z,34.13
2018-11-25T10:26:51.921Z,35.90
2018-11-25T10:29:19.093Z,33.60
2018-11-25T10:31:46.277Z,32.27
2018-11-25T10:34:13.448Z,32.83
2018-11-25T10:36:41.246Z,34.77
2018-11-25T10:39:08.485Z,34.67
2018-11-25T10:41:35.829Z,31.73
2018-11-25T10:44:03.085Z,29.43
2018-11-25T10:46:30.321Z,32.13
2018-11-25T10:48:57.514Z,30.70
2018-11-25T10:51:24.709Z,30.17
2018-11-25T10:53:51.968Z,30.53
2018-11-25T10:56:19.156Z,28.87
2018-11-25T10:58:46.384Z,29.03
2018-11-25T11:01:19.272Z,32.23
2018-11-25T11:03:52.214Z,30.13
2018-11-25T11:06:25.244Z,30.27
2018-11-25T11:08:52.492Z,26.67
2018-11-25T11:11:19.777Z,31.70
2018-11-25T11:13:46.953Z,29.63
2018-11-25T11:16:14.144Z,27.63
2018-11-25T11:18:41.337Z,31.43
2018-11-25T11:21:08.553Z,33.80
2018-11-25T11:23:35.798Z,32.17
2018-11-25T11:26:07.096Z,34.77
2018-11-25T11:28:30.300Z,33.17
2018-11-25T11:30:57.478Z,32.40
2018-11-25T11:33:24.692Z,34.20
2018-11-25T11:35:51.976Z,34.53
2018-11-25T11:38:19.148Z,33.00
2018-11-25T11:40:46.321Z,32.47
2018-11-25T11:43:13.576Z,30.83
2018-11-25T11:45:40.944Z,27.73
2018-11-25T11:48:08.140Z,27.97
2018-11-25T11:50:35.315Z,28.27
2018-11-25T11:53:02.597Z,27.50
2018-11-25T11:56:39.934Z,26.90
2018-11-25T11:59:00.448Z,27.67
2018-11-25T12:01:27.655Z,28.77
2018-11-25T12:03:54.916Z,29.20
2018-11-25T12:06:22.116Z,29.83
2018-11-25T12:08:49.299Z,34.63
2018-11-25T12:11:16.576Z,35.50
2018-11-25T12:13:43.837Z,34.40
2018-11-25T12:16:11.094Z,37.10
2018-11-25T12:18:38.370Z,39.13
2018-11-25T12:21:05.888Z,36.00
2018-11-25T12:23:33.147Z,41.40
2018-11-25T12:26:00.316Z,43.03
2018-11-25T12:28:27.507Z,38.40
2018-11-25T12:30:54.687Z,38.67
2018-11-25T12:33:21.889Z,41.70
2018-11-25T12:35:49.104Z,39.13
2018-11-25T12:38:16.295Z,35.17
2018-11-25T12:40:43.509Z,33.73
2018-11-25T12:43:10.774Z,34.53
2018-11-25T12:45:37.964Z,35.43
2018-11-25T12:48:05.528Z,33.50
2018-11-25T12:50:32.707Z,37.27
2018-11-25T12:52:59.984Z,35.30
2018-11-25T12:55:27.228Z,31.03
2018-11-25T12:57:55.241Z,30.47
2018-11-25T13:00:32.629Z,33.60
2018-11-25T13:02:59.800Z,32.80
2018-11-25T13:05:27.108Z,31.23
2018-11-25T13:07:54.299Z,30.80
2018-11-25T13:10:21.504Z,27.73
2018-11-25T13:12:48.768Z,28.37
2018-11-25T13:15:15.959Z,28.77
2018-11-25T13:17:43.133Z,29.53
2018-11-25T13:20:12.545Z,27.03
2018-11-25T13:22:40.059Z,25.37
2018-11-25T13:25:08.664Z,25.03
2018-11-25T13:27:35.856Z,25.53
2018-11-25T13:30:04.289Z,25.67
2018-11-25T13:32:31.464Z,22.23
2018-11-25T13:34:58.637Z,24.17
2018-11-25T13:37:25.884Z,23.10
2018-11-25T13:39:53.102Z,21.17
2018-11-25T13:42:20.298Z,21.83
2018-11-25T13:44:46.572Z,21.63
2018-11-25T13:47:13.881Z,25.23
2018-11-25T13:49:41.156Z,26.40
2018-11-25T13:52:08.634Z,24.60
2018-11-25T13:54:36.740Z,24.73
2018-11-25T13:57:04.446Z,25.93
2018-11-25T13:59:31.637Z,26.40
2018-11-25T14:01:58.916Z,26.67
2018-11-25T14:04:26.107Z,29.67
2018-11-25T14:06:53.327Z,29.03
2018-11-25T14:09:21.036Z,26.70
2018-11-25T14:11:48.333Z,29.17
2018-11-25T14:14:15.724Z,30.47
2018-11-25T14:16:43.141Z,28.47
2018-11-25T14:19:10.328Z,28.67
2018-11-25T14:21:37.514Z,29.90
2018-11-25T14:24:04.739Z,29.23
2018-11-25T14:26:35.479Z,31.17
2018-11-25T14:29:02.827Z,30.83
2018-11-25T14:31:30.080Z,31.47
2018-11-25T14:33:57.287Z,33.03
2018-11-25T14:36:24.493Z,30.20
2018-11-25T14:38:51.745Z,31.20
2018-11-25T14:41:18.944Z,31.27
2018-11-25T14:43:46.215Z,31.50
2018-11-25T14:46:13.409Z,36.13
2018-11-25T14:48:40.603Z,32.20
2018-11-25T14:51:07.794Z,33.73
2018-11-25T14:53:34.983Z,36.83
2018-11-25T14:56:02.389Z,37.67
2018-11-25T14:58:29.675Z,37.43
2018-11-25T15:00:56.870Z,33.20
2018-11-25T15:03:24.084Z,33.07
2018-11-25T15:05:51.293Z,31.40
2018-11-25T15:08:20.409Z,34.23
2018-11-25T15:10:47.617Z,34.53
2018-11-25T15:13:14.798Z,35.87
2018-11-25T15:15:42.131Z,35.43
2018-11-25T15:18:09.421Z,35.80
2018-11-25T15:20:36.658Z,32.33
2018-11-25T15:23:06.993Z,35.10
2018-11-25T15:25:36.060Z,35.03
2018-11-25T15:28:03.368Z,99.13
2018-11-25T15:30:30.582Z,116.53
2018-11-25T15:32:57.817Z,88.80
2018-11-25T15:35:25.009Z,42.77
2018-11-25T15:37:52.984Z,33.93
2018-11-25T15:40:23.677Z,32.07
2018-11-25T15:42:51.015Z,34.30
2018-11-25T15:45:18.297Z,33.43
2018-11-25T15:47:48.137Z,33.17
2018-11-25T15:50:17.956Z,35.47
2018-11-25T15:52:45.181Z,31.07
2018-11-25T15:55:13.325Z,33.60
2018-11-25T15:57:40.618Z,31.83
2018-11-25T16:00:14.597Z,29.33
2018-11-25T16:02:41.816Z,33.37
2018-11-25T16:05:10.680Z,31.50
2018-11-25T16:07:37.890Z,33.03
2018-11-25T16:10:08.815Z,31.73
2018-11-25T16:12:36.005Z,30.93
2018-11-25T16:15:03.809Z,28.93
2018-11-25T16:17:30.984Z,32.57
2018-11-25T16:19:58.240Z,31.10
2018-11-25T16:22:25.440Z,31.63
2018-11-25T16:24:52.660Z,28.50
2018-11-25T16:27:20.385Z,29.53
2018-11-25T16:29:47.601Z,29.57
2018-11-25T16:32:14.800Z,32.90
2018-11-25T16:34:42.015Z,31.63
2018-11-25T16:37:09.205Z,34.47
2018-11-25T16:39:36.461Z,29.90
2018-11-25T16:42:03.717Z,35.65
2018-11-25T16:44:30.887Z,32.27
2018-11-25T16:46:58.080Z,33.93
2018-11-25T16:49:33.286Z,31.30
2018-11-25T16:51:59.223Z,29.87
2018-11-25T16:54:26.390Z,32.67
2018-11-25T16:56:53.612Z,35.63
2018-11-25T16:59:26.596Z,47.23
2018-11-25T17:04:50.244Z,45.20
2018-11-25T17:07:35.098Z,47.37
2018-11-25T17:10:16.777Z,49.07
2018-11-25T17:12:51.997Z,46.27
2018-11-25T17:15:21.498Z,31.40
2018-11-25T17:17:48.696Z,30.57
2018-11-25T17:20:15.890Z,33.03
2018-11-25T17:25:42.240Z,29.90
2018-11-25T17:28:14.399Z,29.17
2018-11-25T17:30:41.588Z,30.53
2018-11-25T17:33:08.858Z,31.00
2018-11-25T17:38:36.166Z,28.90
2018-11-25T17:41:03.392Z,28.53
2018-11-25T17:43:37.976Z,30.00
2018-11-25T17:49:02.680Z,28.43
2018-11-25T17:51:53.135Z,28.00
2018-11-25T17:54:20.317Z,30.30
2018-11-25T17:57:11.209Z,25.57
2018-11-25T17:59:38.378Z,27.43
2018-11-25T18:02:05.918Z,28.13
2018-11-25T18:04:32.860Z,26.73
2018-11-25T18:07:00.121Z,24.63
2018-11-25T18:09:27.309Z,27.73
2018-11-25T18:12:01.820Z,27.10
2018-11-25T18:14:29.015Z,29.83
2018-11-25T18:16:58.266Z,27.50
2018-11-25T18:19:26.518Z,28.13
2018-11-25T18:21:58.870Z,29.13
2018-11-25T18:24:26.274Z,31.47
2018-11-25T18:26:53.487Z,33.87
2018-11-25T18:29:20.672Z,29.83
2018-11-25T18:35:44.227Z,32.67
2018-11-25T18:38:11.417Z,31.70
2018-11-25T18:40:38.645Z,31.43
2018-11-25T18:43:10.417Z,30.73
2018-11-25T18:45:37.615Z,31.40
2018-11-25T18:48:06.204Z,30.23
2018-11-25T18:50:51.971Z,30.73
2018-11-25T18:56:15.816Z,32.13
2018-11-25T19:01:51.277Z,28.67
2018-11-25T19:04:18.497Z,31.07
2018-11-25T19:06:45.714Z,30.00
2018-11-25T19:09:12.925Z,30.47
2018-11-25T19:11:40.114Z,29.93
2018-11-25T19:14:07.324Z,29.20
2018-11-25T19:16:34.652Z,31.60
2018-11-25T19:24:48.167Z,33.17
2018-11-25T19:30:15.744Z,29.93
2018-11-25T19:33:02.661Z,32.97
2018-11-25T19:35:29.901Z,29.33
2018-11-25T19:37:57.081Z,32.47
2018-11-25T19:40:27.932Z,31.50
2018-11-25T19:43:03.226Z,30.17
2018-11-25T19:48:32.192Z,31.37
2018-11-25T19:50:59.382Z,30.77
2018-11-25T19:53:51.557Z,31.33
2018-11-25T19:56:28.965Z,32.07
2018-11-25T19:58:58.309Z,30.93
2018-11-25T20:01:40.525Z,31.13
2018-11-25T20:04:21.192Z,32.80
2018-11-25T20:06:49.914Z,31.93
2018-11-25T20:09:17.143Z,32.60
2018-11-25T20:11:44.341Z,33.00
2018-11-25T20:14:11.538Z,34.57
2018-11-25T20:16:44.569Z,33.93
2018-11-25T20:19:11.760Z,37.47
2018-11-25T20:21:55.898Z,36.33
2018-11-25T20:24:35.360Z,33.23
2018-11-25T20:30:03.672Z,34.20
2018-11-25T20:32:36.608Z,31.80
2018-11-25T20:35:04.405Z,35.00
2018-11-25T20:37:31.601Z,34.33
2018-11-25T20:39:58.789Z,32.03
2018-11-25T20:42:25.959Z,32.13
2018-11-25T20:44:53.140Z,34.77
2018-11-25T20:47:20.338Z,36.07
2018-11-25T20:49:47.559Z,36.43
2018-11-25T20:52:20.585Z,33.60
2018-11-25T20:54:47.763Z,34.50
2018-11-25T20:57:33.858Z,36.63
2018-11-25T21:00:15.065Z,37.77
2018-11-25T21:02:41.198Z,34.53
2018-11-25T21:05:13.012Z,34.00
2018-11-25T21:07:40.217Z,33.10
2018-11-25T21:10:09.143Z,34.70
2018-11-25T21:12:37.349Z,36.43
2018-11-25T21:15:05.941Z,37.20
2018-11-25T21:17:33.117Z,35.57
2018-11-25T21:20:00.318Z,34.30
2018-11-25T21:22:27.500Z,35.20
2018-11-25T21:24:56.712Z,34.53
2018-11-25T21:27:23.897Z,34.20
2018-11-25T21:29:51.100Z,33.87
2018-11-25T21:32:18.275Z,29.67
2018-11-25T21:34:45.456Z,30.43
2018-11-25T21:37:12.753Z,31.57
2018-11-25T21:39:39.957Z,33.27
2018-11-25T21:42:07.588Z,31.73
2018-11-25T21:44:34.770Z,29.23
2018-11-25T21:47:01.941Z,32.35
2018-11-25T21:49:29.120Z,29.23
2018-11-25T21:51:56.410Z,29.33
2018-11-25T21:54:23.664Z,26.67
2018-11-25T21:56:50.879Z,30.17
2018-11-25T21:59:18.042Z,30.87
2018-11-25T22:05:24.904Z,29.97
2018-11-25T22:07:50.335Z,28.77
2018-11-25T22:10:19.417Z,27.53
2018-11-25T22:12:47.080Z,27.00
2018-11-25T22:15:20.474Z,28.90
2018-11-25T22:17:47.700Z,31.23
2018-11-25T22:20:15.592Z,27.73
2018-11-25T22:22:42.803Z,26.93
2018-11-25T22:25:11.083Z,25.23
2018-11-25T22:27:38.464Z,23.27
2018-11-25T22:30:08.400Z,24.87
2018-11-25T22:32:35.660Z,26.03
2018-11-25T22:35:02.925Z,24.17
2018-11-25T22:37:30.133Z,25.73
2018-11-25T22:39:57.403Z,23.43
2018-11-25T22:42:24.667Z,25.37
2018-11-25T22:44:51.864Z,22.90
2018-11-25T22:47:19.073Z,22.00
2018-11-25T22:49:46.246Z,24.43
2018-11-25T22:52:13.481Z,23.30
2018-11-25T22:54:40.688Z,25.53
2018-11-25T22:57:07.886Z,23.67
2018-11-25T22:59:35.049Z,25.70
2018-11-25T23:02:02.317Z,25.70
2018-11-25T23:04:41.260Z,29.07
2018-11-25T23:07:08.509Z,29.60
2018-11-25T23:09:35.697Z,27.43
2018-11-25T23:12:02.964Z,26.97
2018-11-25T23:14:30.156Z,29.43
2018-11-25T23:16:57.395Z,32.37
2018-11-25T23:19:24.560Z,29.47
2018-11-25T23:21:51.786Z,34.07
2018-11-25T23:24:18.963Z,35.03
2018-11-25T23:26:46.155Z,34.20
2018-11-25T23:29:13.424Z,33.70
2018-11-25T23:31:40.600Z,31.87
2018-11-25T23:34:07.809Z,31.33
2018-11-25T23:36:35.368Z,32.50
2018-11-25T23:39:03.565Z,30.80
2018-11-25T23:41:30.756Z,32.87
2018-11-25T23:43:57.924Z,30.10
2018-11-25T23:46:25.105Z,31.43
2018-11-25T23:48:52.273Z,32.03
2018-11-25T23:51:19.513Z,32.03
2018-11-25T23:53:46.692Z,32.03
2018-11-25T23:56:13.889Z,30.80
2018-11-25T23:58:41.117Z,33.40
